Time;durP1;ratioP1;P1;durP2;ratioP2;P2;SDS_P1;SDS_P2;PMS_P1;PMS_P2;Temp;Humidity;BMP_temperature;BMP_pressure;BME280_temperature;BME280_humidity;BME280_pressure;Samples;Min_cycle;Max_cycle;Signal;HPM_P1;HPM_P2
2021/07/12 00:00:49;;;;;;;69.22;44.97;;;17.50;99.90;;;;;;5034225;28;20041;-71
2021/07/12 00:03:15;;;;;;;62.58;42.38;;;17.50;99.90;;;;;;5033938;28;20509;-70
2021/07/12 00:05:41;;;;;;;64.20;44.25;;;17.50;99.90;;;;;;5034614;28;20026;-70
2021/07/12 00:08:08;;;;;;;66.95;43.42;;;17.40;99.90;;;;;;5034269;28;20108;-71
2021/07/12 00:10:34;;;;;;;66.50;42.75;;;17.40;99.90;;;;;;5033531;28;20037;-71
2021/07/12 00:12:59;;;;;;;77.22;46.38;;;17.40;99.90;;;;;;5034089;28;20026;-72
2021/07/12 00:15:26;;;;;;;67.85;42.80;;;17.40;99.90;;;;;;5034371;28;20108;-70
2021/07/12 00:17:52;;;;;;;71.43;43.63;;;17.40;99.90;;;;;;5033487;28;20125;-70
2021/07/12 00:20:19;;;;;;;69.45;44.25;;;17.40;99.90;;;;;;5034261;28;20488;-71
2021/07/12 00:22:45;;;;;;;68.20;43.28;;;17.40;99.90;;;;;;5033945;28;20064;-71
2021/07/12 00:25:12;;;;;;;70.30;43.83;;;17.40;99.90;;;;;;5033612;28;20034;-70
2021/07/12 00:27:38;;;;;;;68.53;44.33;;;17.40;99.90;;;;;;5034217;28;20033;-70
2021/07/12 00:30:07;;;;;;;68.57;43.80;;;17.40;99.90;;;;;;5033352;28;20032;-70
2021/07/12 00:32:32;;;;;;;70.53;44.40;;;17.40;99.90;;;;;;5033768;28;20025;-71
2021/07/12 00:34:58;;;;;;;68.40;43.75;;;17.40;99.90;;;;;;5033763;28;20180;-72
2021/07/12 00:37:24;;;;;;;67.43;43.38;;;17.40;99.90;;;;;;5033129;28;20104;-70
2021/07/12 00:39:49;;;;;;;68.45;44.05;;;17.40;99.90;;;;;;5033506;28;20040;-70
2021/07/12 00:42:15;;;;;;;65.88;41.55;;;17.40;99.90;;;;;;5034137;28;20546;-70
2021/07/12 00:44:42;;;;;;;66.80;42.50;;;17.30;99.90;;;;;;5033364;28;20025;-71
2021/07/12 00:47:07;;;;;;;63.30;43.38;;;17.30;99.90;;;;;;5034012;28;20029;-71
2021/07/12 00:49:34;;;;;;;66.93;43.28;;;17.30;99.90;;;;;;5033615;28;20527;-71
2021/07/12 00:52:00;;;;;;;64.25;42.60;;;17.30;99.90;;;;;;5031619;28;20053;-71
2021/07/12 00:54:28;;;;;;;70.97;43.70;;;17.30;99.90;;;;;;5033555;28;20477;-71
2021/07/12 00:56:55;;;;;;;71.50;43.83;;;17.20;99.90;;;;;;5033161;28;20026;-71
2021/07/12 00:59:22;;;;;;;68.93;42.40;;;17.20;99.90;;;;;;5032835;28;20071;-71
2021/07/12 01:01:47;;;;;;;64.53;42.92;;;17.20;99.90;;;;;;5032572;28;20524;-70
2021/07/12 01:04:13;;;;;;;70.97;43.03;;;17.20;99.90;;;;;;5033441;28;20037;-70
2021/07/12 01:06:39;;;;;;;72.63;43.83;;;17.20;99.90;;;;;;5032490;28;20030;-72
2021/07/12 01:09:04;;;;;;;65.68;42.08;;;17.20;99.90;;;;;;5032873;28;20049;-71
2021/07/12 01:11:52;;;;;;;67.78;41.50;;;17.10;99.90;;;;;;5033714;28;20037;-71
2021/07/12 01:14:39;;;;;;;63.05;41.47;;;17.10;99.90;;;;;;5032719;28;20071;-70
2021/07/12 01:17:23;;;;;;;64.65;41.47;;;17.10;99.90;;;;;;5032792;28;20092;-70
2021/07/12 01:20:09;;;;;;;59.92;38.63;;;17.10;99.90;;;;;;5032415;28;20041;-70
2021/07/12 01:22:41;;;;;;;67.10;41.20;;;17.10;99.90;;;;;;5020016;28;20026;-71
2021/07/12 01:25:33;;;;;;;62.60;39.95;;;17.00;99.90;;;;;;5031961;28;20045;-72
2021/07/12 01:28:36;;;;;;;58.67;38.58;;;17.10;99.90;;;;;;5021412;28;20061;-71
2021/07/12 01:31:26;;;;;;;59.85;39.90;;;17.00;99.90;;;;;;5018836;28;20033;-70
2021/07/12 01:34:02;;;;;;;61.97;37.03;;;17.00;99.90;;;;;;5031707;28;20021;-70
2021/07/12 01:36:51;;;;;;;63.88;38.42;;;17.00;99.90;;;;;;5033001;28;20590;-71
2021/07/12 01:39:28;;;;;;;57.85;37.85;;;17.00;99.90;;;;;;5032709;28;20029;-71
2021/07/12 01:42:22;;;;;;;58.13;37.45;;;17.00;99.90;;;;;;5031943;28;20055;-71
2021/07/12 01:45:01;;;;;;;56.92;38.13;;;17.00;99.90;;;;;;5032397;28;20032;-72
2021/07/12 01:47:38;;;;;;;57.55;37.38;;;17.00;99.90;;;;;;5032208;28;20484;-71
2021/07/12 01:50:17;;;;;;;55.40;37.08;;;17.00;99.90;;;;;;5032747;28;20061;-71
2021/07/12 01:53:05;;;;;;;58.85;37.42;;;17.00;99.90;;;;;;5032790;28;20115;-71
2021/07/12 01:55:57;;;;;;;57.80;35.90;;;17.00;99.90;;;;;;5020471;28;20026;-72
2021/07/12 01:58:52;;;;;;;55.30;34.53;;;17.00;99.90;;;;;;5028714;28;20032;-71
2021/07/12 02:01:21;;;;;;;57.83;37.80;;;17.00;99.90;;;;;;5031451;28;20053;-71
2021/07/12 02:03:47;;;;;;;52.20;35.08;;;17.00;99.90;;;;;;5031918;28;20025;-70
2021/07/12 02:06:15;;;;;;;55.35;36.88;;;17.10;99.90;;;;;;5032392;28;20033;-71
2021/07/12 02:08:45;;;;;;;54.03;35.85;;;17.10;99.90;;;;;;5031422;28;20031;-71
2021/07/12 02:11:14;;;;;;;54.70;35.38;;;17.10;99.90;;;;;;5032111;28;20449;-71
2021/07/12 02:13:42;;;;;;;51.75;35.08;;;17.10;99.90;;;;;;5031795;28;20029;-71
2021/07/12 02:16:10;;;;;;;49.90;34.65;;;17.10;99.90;;;;;;5031691;28;20027;-71
2021/07/12 02:18:37;;;;;;;53.47;35.78;;;17.10;99.90;;;;;;5031858;28;20102;-71
2021/07/12 02:21:06;;;;;;;56.10;37.13;;;17.10;99.90;;;;;;5031898;28;20033;-70
2021/07/12 02:23:33;;;;;;;52.17;35.67;;;17.10;99.90;;;;;;5031449;28;20104;-70
2021/07/12 02:26:00;;;;;;;50.75;34.55;;;17.10;99.90;;;;;;5031762;28;20109;-71
2021/07/12 02:28:27;;;;;;;51.65;35.95;;;17.10;99.90;;;;;;5032099;28;20385;-72
2021/07/12 02:30:53;;;;;;;52.95;36.28;;;17.00;99.90;;;;;;5030830;28;20543;-71
2021/07/12 02:33:19;;;;;;;54.92;34.17;;;17.10;99.90;;;;;;5032067;28;20057;-71
2021/07/12 02:35:46;;;;;;;61.55;36.97;;;17.00;99.90;;;;;;5031519;28;20104;-70
2021/07/12 02:38:12;;;;;;;53.88;36.33;;;17.00;99.90;;;;;;5031357;28;20063;-71
2021/07/12 02:40:38;;;;;;;54.53;36.20;;;17.00;99.90;;;;;;5031727;28;20473;-70
2021/07/12 02:43:06;;;;;;;52.33;35.55;;;17.00;99.90;;;;;;5031487;28;20084;-71
2021/07/12 02:45:34;;;;;;;54.53;35.70;;;17.00;99.90;;;;;;5031485;28;20073;-70
2021/07/12 02:48:00;;;;;;;58.17;37.92;;;17.00;99.90;;;;;;5031580;28;20014;-71
2021/07/12 02:50:28;;;;;;;49.65;34.17;;;17.00;99.90;;;;;;5031440;28;20107;-70
2021/07/12 02:52:59;;;;;;;55.35;36.55;;;17.00;99.90;;;;;;5030151;28;20030;-71
2021/07/12 02:55:25;;;;;;;55.47;36.30;;;17.00;99.90;;;;;;5031095;28;20036;-71
2021/07/12 02:57:51;;;;;;;50.88;36.78;;;17.00;99.90;;;;;;5030215;28;20241;-71
2021/07/12 03:00:17;;;;;;;56.60;35.67;;;17.00;99.90;;;;;;5031018;28;20450;-71
2021/07/12 03:02:43;;;;;;;54.53;36.03;;;17.00;99.90;;;;;;5030419;28;20080;-71
2021/07/12 03:05:10;;;;;;;53.03;35.97;;;17.00;99.90;;;;;;5030624;28;20068;-71
2021/07/12 03:07:52;;;;;;;56.78;36.88;;;17.00;99.90;;;;;;5031311;28;20025;-71
2021/07/12 03:10:20;;;;;;;56.00;34.63;;;17.00;99.90;;;;;;5031104;28;20044;-71
2021/07/12 03:12:58;;;;;;;54.30;37.38;;;17.00;99.90;;;;;;5029889;28;20022;-70
2021/07/12 03:15:44;;;;;;;55.75;35.58;;;17.00;99.90;;;;;;5031772;28;20535;-70
2021/07/12 03:18:30;;;;;;;56.00;36.88;;;17.00;99.90;;;;;;5034672;28;20061;-69
2021/07/12 03:21:02;;;;;;;57.03;35.67;;;17.00;99.90;;;;;;5034084;28;20100;-69
2021/07/12 03:23:32;;;;;;;52.85;35.95;;;17.10;99.90;;;;;;5034944;28;20491;-70
2021/07/12 03:26:01;;;;;;;56.42;37.03;;;17.10;99.90;;;;;;5034077;28;20425;-70
2021/07/12 03:28:27;;;;;;;55.38;37.38;;;17.10;99.90;;;;;;5034938;28;20026;-70
2021/07/12 03:30:53;;;;;;;54.10;36.53;;;17.10;99.90;;;;;;5034832;28;20091;-71
2021/07/12 03:33:22;;;;;;;64.22;36.97;;;17.10;99.90;;;;;;5034466;28;20033;-71
2021/07/12 03:35:49;;;;;;;53.00;35.17;;;17.10;99.90;;;;;;5034385;28;20496;-71
2021/07/12 03:38:18;;;;;;;52.65;36.65;;;17.10;99.90;;;;;;5034986;28;20025;-70
2021/07/12 03:40:44;;;;;;;54.22;37.60;;;17.10;99.90;;;;;;5033628;28;20029;-71
2021/07/12 03:43:12;;;;;;;55.85;36.78;;;17.20;99.90;;;;;;5034604;28;20021;-71
2021/07/12 03:45:39;;;;;;;55.35;36.47;;;17.10;99.90;;;;;;5034831;28;20041;-71
2021/07/12 03:48:06;;;;;;;59.33;38.65;;;17.10;99.90;;;;;;5033873;28;20097;-71
2021/07/12 03:50:32;;;;;;;52.55;35.75;;;17.10;99.90;;;;;;5034630;28;20048;-71
2021/07/12 03:53:03;;;;;;;52.08;35.97;;;17.10;99.90;;;;;;5034329;28;20112;-70
2021/07/12 03:55:31;;;;;;;54.97;36.17;;;17.20;99.90;;;;;;5034069;28;20071;-70
2021/07/12 03:57:59;;;;;;;54.25;37.17;;;17.20;99.90;;;;;;5034571;28;20029;-71
2021/07/12 04:00:28;;;;;;;54.97;38.65;;;17.20;99.90;;;;;;5034780;28;20030;-71
2021/07/12 04:02:54;;;;;;;55.85;37.65;;;17.30;99.90;;;;;;5033341;28;20041;-72
2021/07/12 04:05:24;;;;;;;55.83;38.45;;;17.30;99.90;;;;;;5034547;28;20032;-71
2021/07/12 04:07:51;;;;;;;52.58;37.83;;;18.10;99.90;;;;;;5034240;28;20040;-71
2021/07/12 04:10:18;;;;;;;51.80;38.88;;;17.30;99.90;;;;;;5033741;28;20554;-71
2021/07/12 04:12:44;;;;;;;62.55;38.25;;;17.30;99.90;;;;;;5034309;28;20037;-72
2021/07/12 04:15:11;;;;;;;52.42;36.72;;;17.40;99.90;;;;;;5033917;28;20069;-71
2021/07/12 04:17:37;;;;;;;55.05;38.35;;;17.40;99.90;;;;;;5034482;28;20480;-72
2021/07/12 04:20:04;;;;;;;57.45;36.95;;;17.40;99.90;;;;;;5034202;28;20040;-72
2021/07/12 04:22:30;;;;;;;52.22;37.17;;;17.40;99.90;;;;;;5033987;28;20051;-71
2021/07/12 04:24:55;;;;;;;53.60;36.80;;;17.40;99.90;;;;;;5034037;28;20116;-71
2021/07/12 04:27:21;;;;;;;55.65;39.85;;;17.40;99.90;;;;;;5034114;28;20029;-71
2021/07/12 04:29:46;;;;;;;58.30;38.72;;;17.50;99.90;;;;;;5033398;28;20462;-72
2021/07/12 04:32:12;;;;;;;55.95;37.95;;;17.50;99.90;;;;;;5033950;28;20056;-71
2021/07/12 04:34:38;;;;;;;53.75;37.67;;;17.50;99.90;;;;;;5033996;28;20025;-71
2021/07/12 04:37:04;;;;;;;56.92;38.17;;;17.50;99.90;;;;;;5032974;28;20025;-71
2021/07/12 04:39:30;;;;;;;57.10;38.42;;;17.50;99.90;;;;;;5033746;28;20022;-71
2021/07/12 04:41:56;;;;;;;55.22;38.72;;;17.60;99.90;;;;;;5033142;28;20030;-72
2021/07/12 04:44:22;;;;;;;53.70;38.13;;;17.60;99.90;;;;;;5033262;28;20036;-71
2021/07/12 04:46:49;;;;;;;59.47;38.95;;;17.60;99.90;;;;;;5033560;28;20013;-71
2021/07/12 04:49:15;;;;;;;56.25;36.88;;;17.60;99.90;;;;;;5033577;28;20526;-70
2021/07/12 04:51:41;;;;;;;51.97;35.92;;;17.70;99.90;;;;;;5032914;28;20144;-71
2021/07/12 04:54:06;;;;;;;50.50;35.72;;;17.70;99.90;;;;;;5033144;28;20068;-71
2021/07/12 04:56:33;;;;;;;51.70;36.70;;;17.80;99.90;;;;;;5033699;28;20025;-71
2021/07/12 04:59:03;;;;;;;46.08;35.03;;;17.80;99.90;;;;;;5032674;28;20069;-71
2021/07/12 05:01:32;;;;;;;55.92;37.50;;;17.90;99.90;;;;;;5033467;28;20033;-71
2021/07/12 05:03:58;;;;;;;47.42;35.25;;;17.90;99.90;;;;;;5032599;28;20527;-73
2021/07/12 05:06:24;;;;;;;46.80;35.25;;;17.90;99.90;;;;;;5032326;28;20033;-72
2021/07/12 05:08:49;;;;;;;53.70;36.28;;;18.00;99.90;;;;;;5033121;28;20453;-71
2021/07/12 05:11:15;;;;;;;47.92;36.00;;;18.00;99.90;;;;;;5032432;28;20033;-71
2021/07/12 05:13:43;;;;;;;56.45;39.20;;;18.00;99.90;;;;;;5033226;28;20022;-70
2021/07/12 05:16:09;;;;;;;52.92;35.95;;;18.10;99.90;;;;;;5033011;28;20029;-72
2021/07/12 05:18:36;;;;;;;57.35;37.97;;;18.10;99.90;;;;;;5032356;28;20028;-72
2021/07/12 05:21:01;;;;;;;50.05;37.58;;;18.10;99.90;;;;;;5032594;28;20056;-72
2021/07/12 05:23:27;;;;;;;53.33;38.03;;;18.10;99.90;;;;;;5033123;28;20014;-72
2021/07/12 05:25:52;;;;;;;51.13;37.95;;;18.10;99.90;;;;;;5032285;28;20067;-70
2021/07/12 05:28:18;;;;;;;51.33;38.22;;;18.20;99.90;;;;;;5032940;28;20022;-70
2021/07/12 05:30:46;;;;;;;45.90;35.72;;;18.20;99.90;;;;;;5032490;28;20116;-71
2021/07/12 05:33:12;;;;;;;48.63;36.60;;;18.20;99.90;;;;;;5032248;28;20491;-72
2021/07/12 05:35:38;;;;;;;52.33;37.63;;;18.20;99.90;;;;;;5032458;28;20120;-72
2021/07/12 05:38:04;;;;;;;49.95;36.25;;;18.30;99.90;;;;;;5032125;28;20091;-72
2021/07/12 05:40:30;;;;;;;50.70;36.78;;;18.30;99.90;;;;;;5032006;28;20033;-71
2021/07/12 05:42:57;;;;;;;49.03;36.42;;;18.40;99.90;;;;;;5032264;28;20021;-71
2021/07/12 05:45:22;;;;;;;46.55;35.97;;;18.40;99.90;;;;;;5032445;28;20374;-71
2021/07/12 05:47:48;;;;;;;52.72;37.35;;;18.50;99.90;;;;;;5031759;28;20028;-71
2021/07/12 05:50:15;;;;;;;47.63;34.60;;;18.60;99.90;;;;;;5031342;28;20036;-70
2021/07/12 05:52:44;;;;;;;43.50;34.13;;;18.70;99.90;;;;;;5015666;28;20131;-73
2021/07/12 05:55:10;;;;;;;41.85;32.15;;;18.90;99.90;;;;;;5016463;28;20749;-70
2021/07/12 05:57:36;;;;;;;42.38;34.95;;;19.00;99.90;;;;;;5014481;28;20056;-72
2021/07/12 06:00:03;;;;;;;43.00;34.20;;;19.20;99.90;;;;;;5012529;28;20120;-72
2021/07/12 06:02:29;;;;;;;40.42;32.03;;;19.30;99.90;;;;;;5014320;28;20054;-71
2021/07/12 06:04:54;;;;;;;36.47;29.77;;;19.50;99.90;;;;;;5016363;28;20145;-72
2021/07/12 06:07:20;;;;;;;39.47;31.40;;;19.50;99.90;;;;;;5014725;28;20108;-72
2021/07/12 06:09:45;;;;;;;34.28;29.00;;;19.60;99.90;;;;;;5017386;28;20362;-72
2021/07/12 06:12:11;;;;;;;35.80;29.58;;;19.70;99.90;;;;;;5014549;28;20262;-71
2021/07/12 06:14:36;;;;;;;35.03;29.20;;;19.70;99.90;;;;;;5015472;28;20018;-72
2021/07/12 06:17:02;;;;;;;34.72;29.95;;;19.70;99.90;;;;;;5013519;28;20391;-71
2021/07/12 06:19:28;;;;;;;35.97;30.33;;;19.70;99.90;;;;;;5016675;28;20057;-71
2021/07/12 06:21:54;;;;;;;38.58;29.42;;;19.80;99.90;;;;;;5023084;28;20105;-70
2021/07/12 06:24:19;;;;;;;35.13;30.13;;;19.90;99.90;;;;;;5031510;28;20083;-71
2021/07/12 06:26:45;;;;;;;33.17;29.30;;;20.00;99.90;;;;;;5030813;28;20018;-72
2021/07/12 06:29:10;;;;;;;37.83;29.30;;;20.00;99.90;;;;;;5030737;28;20017;-71
2021/07/12 06:31:36;;;;;;;36.70;29.45;;;20.10;99.90;;;;;;5029156;28;20424;-72
2021/07/12 06:34:02;;;;;;;32.67;27.75;;;20.30;99.90;;;;;;5031065;28;20013;-72
2021/07/12 06:36:28;;;;;;;33.60;27.25;;;20.40;99.90;;;;;;5030844;28;20756;-70
2021/07/12 06:38:53;;;;;;;33.08;27.98;;;20.50;99.90;;;;;;5031592;28;20025;-71
2021/07/12 06:41:19;;;;;;;32.78;27.75;;;20.60;99.90;;;;;;5031698;28;20026;-70
2021/07/12 06:43:44;;;;;;;34.55;29.02;;;20.60;99.90;;;;;;5031364;28;20108;-72
2021/07/12 06:46:10;;;;;;;33.90;27.70;;;20.70;99.90;;;;;;5031674;28;20060;-71
2021/07/12 06:48:35;;;;;;;31.35;28.08;;;20.70;99.90;;;;;;5031692;28;20017;-71
2021/07/12 06:51:01;;;;;;;35.60;28.13;;;20.80;99.90;;;;;;5033729;28;20065;-72
2021/07/12 06:53:26;;;;;;;34.78;28.83;;;20.90;99.90;;;;;;5034605;28;20112;-72
2021/07/12 06:55:52;;;;;;;29.27;24.20;;;20.90;99.90;;;;;;5034186;28;20442;-72
2021/07/12 06:58:18;;;;;;;29.00;25.52;;;21.00;99.90;;;;;;5032284;28;20044;-72
2021/07/12 07:00:43;;;;;;;26.45;23.70;;;21.20;99.90;;;;;;5034856;28;20026;-73
2021/07/12 07:03:09;;;;;;;26.25;23.45;;;21.20;99.90;;;;;;5029286;28;20416;-72
2021/07/12 07:05:36;;;;;;;29.15;25.92;;;21.30;99.90;;;;;;5027918;28;20030;-72
2021/07/12 07:08:02;;;;;;;27.20;24.40;;;21.40;99.90;;;;;;5035064;28;20029;-71
2021/07/12 07:10:30;;;;;;;26.20;23.65;;;21.50;99.90;;;;;;5035716;28;20037;-72
2021/07/12 07:12:56;;;;;;;27.00;24.20;;;21.80;99.90;;;;;;5034989;28;20025;-72
2021/07/12 07:15:21;;;;;;;27.00;23.85;;;21.70;99.90;;;;;;5035250;28;20033;-74
2021/07/12 07:17:47;;;;;;;30.55;24.50;;;21.90;99.90;;;;;;5034931;28;20075;-73
2021/07/12 07:20:13;;;;;;;28.65;25.58;;;21.90;99.90;;;;;;5035070;28;20482;-72
2021/07/12 07:22:39;;;;;;;27.70;23.88;;;22.00;99.90;;;;;;5035748;28;20029;-72
2021/07/12 07:25:05;;;;;;;28.98;23.95;;;22.10;99.90;;;;;;5033682;28;20036;-72
2021/07/12 07:27:32;;;;;;;27.27;24.42;;;22.00;99.90;;;;;;5035520;28;20029;-71
2021/07/12 07:29:58;;;;;;;27.08;24.15;;;22.00;99.90;;;;;;5034992;28;20021;-72
2021/07/12 07:32:24;;;;;;;28.13;24.58;;;22.00;99.90;;;;;;5034758;28;20025;-75
2021/07/12 07:34:50;;;;;;;25.42;22.85;;;22.00;99.90;;;;;;5035589;28;20024;-73
2021/07/12 07:37:16;;;;;;;25.60;22.92;;;22.00;99.90;;;;;;5035596;28;20025;-75
2021/07/12 07:39:42;;;;;;;26.90;24.15;;;22.00;99.90;;;;;;5035275;28;20060;-74
2021/07/12 07:42:08;;;;;;;28.83;23.52;;;22.00;99.90;;;;;;5035117;28;20068;-75
2021/07/12 07:44:34;;;;;;;31.27;22.73;;;22.10;99.90;;;;;;5035342;28;20033;-74
2021/07/12 07:47:00;;;;;;;22.55;20.25;;;22.10;99.90;;;;;;5034358;28;20018;-73
2021/07/12 07:49:25;;;;;;;26.25;22.17;;;22.10;99.90;;;;;;5035146;28;20044;-72
2021/07/12 07:51:51;;;;;;;25.92;21.75;;;22.00;99.90;;;;;;5027305;28;20026;-71
2021/07/12 07:54:16;;;;;;;30.13;21.83;;;22.00;99.90;;;;;;5034767;28;20021;-74
2021/07/12 07:56:42;;;;;;;23.38;20.90;;;22.00;99.90;;;;;;5035920;28;20388;-72
2021/07/12 07:59:08;;;;;;;24.27;20.98;;;22.10;99.90;;;;;;5035436;28;20507;-73
2021/07/12 08:01:34;;;;;;;23.52;20.15;;;22.10;99.90;;;;;;5033928;28;20060;-73
2021/07/12 08:04:00;;;;;;;22.27;19.85;;;22.20;99.90;;;;;;5034539;28;20064;-72
2021/07/12 08:06:26;;;;;;;21.63;19.20;;;22.20;99.90;;;;;;5034823;28;20393;-73
2021/07/12 08:08:52;;;;;;;24.02;19.48;;;22.30;99.90;;;;;;5034241;28;20072;-73
2021/07/12 08:11:17;;;;;;;20.45;18.15;;;22.30;99.90;;;;;;5034835;28;20041;-73
2021/07/12 08:13:43;;;;;;;21.27;19.10;;;22.40;99.90;;;;;;5034807;28;20100;-75
2021/07/12 08:16:10;;;;;;;18.15;16.25;;;22.40;99.90;;;;;;5034217;28;20034;-73
2021/07/12 08:18:36;;;;;;;19.65;17.55;;;22.50;99.90;;;;;;5034696;28;20028;-73
2021/07/12 08:21:03;;;;;;;18.67;16.67;;;22.40;99.90;;;;;;5034607;28;20111;-73
2021/07/12 08:23:32;;;;;;;19.65;16.88;;;22.50;99.90;;;;;;5033876;28;20428;-73
2021/07/12 08:25:57;;;;;;;18.50;16.65;;;22.60;99.90;;;;;;5034514;28;20032;-73
2021/07/12 08:28:25;;;;;;;15.57;13.95;;;22.70;99.90;;;;;;5033554;28;20112;-72
2021/07/12 08:30:53;;;;;;;15.73;12.82;;;22.70;99.90;;;;;;5034146;28;20408;-73
2021/07/12 08:33:20;;;;;;;15.02;13.45;;;22.70;99.90;;;;;;5034586;28;20033;-74
2021/07/12 08:35:45;;;;;;;14.30;12.90;;;22.70;99.90;;;;;;5033425;28;20032;-75
2021/07/12 08:38:11;;;;;;;13.25;11.82;;;22.80;99.90;;;;;;5034348;28;20021;-74
2021/07/12 08:40:37;;;;;;;14.25;12.73;;;22.90;99.90;;;;;;5033970;28;20025;-73
2021/07/12 08:43:03;;;;;;;11.98;10.77;;;22.90;99.90;;;;;;5033110;28;20392;-72
2021/07/12 08:45:29;;;;;;;12.05;10.82;;;23.00;99.90;;;;;;5033848;28;20030;-72
2021/07/12 08:47:55;;;;;;;12.07;10.88;;;23.00;99.90;;;;;;5033977;28;20492;-75
2021/07/12 08:50:23;;;;;;;13.60;12.25;;;23.00;99.90;;;;;;5033353;28;20033;-73
2021/07/12 08:52:50;;;;;;;10.40;9.57;;;23.10;99.90;;;;;;5033664;28;20071;-71
2021/07/12 08:55:16;;;;;;;10.13;9.20;;;23.30;99.90;;;;;;5034034;28;20021;-73
2021/07/12 08:58:13;;;;;;;7.93;7.10;;;23.40;99.90;;;;;;5033014;28;20041;-73
2021/07/12 09:00:40;;;;;;;9.13;8.43;;;23.60;99.90;;;;;;5013783;28;20064;-73
2021/07/12 09:03:19;;;;;;;9.65;8.80;;;23.80;99.90;;;;;;5033686;28;20049;-75
2021/07/12 09:06:10;;;;;;;11.52;10.43;;;24.10;99.90;;;;;;5033327;28;20017;-72
2021/07/12 09:08:52;;;;;;;11.07;10.07;;;24.30;99.90;;;;;;5033648;28;20021;-75
2021/07/12 09:11:34;;;;;;;7.72;7.10;;;24.30;99.90;;;;;;5033118;28;20083;-73
2021/07/12 09:14:03;;;;;;;6.43;5.80;;;24.50;99.90;;;;;;5020833;28;20402;-72
2021/07/12 09:16:36;;;;;;;10.40;5.75;;;24.60;99.90;;;;;;5033827;28;20559;-73
2021/07/12 09:19:23;;;;;;;8.55;7.32;;;24.80;99.90;;;;;;5032721;28;20021;-72
2021/07/12 09:21:55;;;;;;;7.07;6.45;;;25.00;99.90;;;;;;5033331;28;20029;-73
2021/07/12 09:24:22;;;;;;;7.03;6.28;;;25.00;99.90;;;;;;5033111;28;20393;-73
2021/07/12 09:27:01;;;;;;;9.07;7.20;;;25.20;99.90;;;;;;5033110;28;20021;-73
2021/07/12 09:29:33;;;;;;;7.68;7.07;;;25.20;99.90;;;;;;5033823;28;20483;-73
2021/07/12 09:32:01;;;;;;;8.18;7.47;;;25.20;99.90;;;;;;5032709;28;20041;-74
2021/07/12 09:34:27;;;;;;;8.73;7.82;;;25.30;99.90;;;;;;5029866;28;20048;-73
2021/07/12 09:36:54;;;;;;;7.85;7.25;;;25.40;99.90;;;;;;5032031;28;20021;-73
2021/07/12 09:39:24;;;;;;;9.05;8.35;;;25.40;99.90;;;;;;5031896;28;20123;-73
2021/07/12 09:41:58;;;;;;;8.95;8.25;;;25.40;99.90;;;;;;5032183;28;20033;-71
2021/07/12 09:44:27;;;;;;;11.63;6.53;;;25.50;99.90;;;;;;5024731;28;20468;-72
2021/07/12 09:46:55;;;;;;;7.00;6.38;;;25.60;99.90;;;;;;5040827;28;20028;-73
2021/07/12 09:49:23;;;;;;;4.13;3.83;;;25.60;99.90;;;;;;5047013;28;20025;-73
2021/07/12 09:51:55;;;;;;;5.45;5.03;;;25.70;99.50;;;;;;5041801;28;20138;-73
2021/07/12 09:54:23;;;;;;;6.65;4.65;;;25.70;99.00;;;;;;5046419;28;20033;-75
2021/07/12 09:56:51;;;;;;;5.70;5.10;;;25.70;98.90;;;;;;5046935;28;20025;-73
2021/07/12 09:59:18;;;;;;;5.05;4.75;;;25.80;98.80;;;;;;5044747;28;20100;-72
2021/07/12 10:01:49;;;;;;;6.55;5.20;;;25.70;98.80;;;;;;5042804;28;20032;-73
2021/07/12 10:04:15;;;;;;;6.97;6.22;;;25.80;98.50;;;;;;5000363;28;20053;-72
2021/07/12 10:06:43;;;;;;;5.53;5.13;;;25.80;98.40;;;;;;5002796;28;20030;-72
2021/07/12 10:09:09;;;;;;;4.70;4.20;;;25.80;98.00;;;;;;5011635;28;20021;-74
2021/07/12 10:11:35;;;;;;;5.35;4.10;;;25.90;97.90;;;;;;5009662;28;20493;-73
2021/07/12 10:14:02;;;;;;;6.82;4.55;;;26.00;97.60;;;;;;5009129;28;20450;-73
2021/07/12 10:16:29;;;;;;;5.80;5.40;;;26.10;97.80;;;;;;5009019;28;20052;-73
2021/07/12 10:18:54;;;;;;;5.63;5.13;;;26.20;97.10;;;;;;5006413;28;20024;-74
2021/07/12 10:21:21;;;;;;;4.97;4.57;;;26.30;97.30;;;;;;4999158;28;20117;-74
2021/07/12 10:23:54;;;;;;;5.00;4.60;;;26.40;97.00;;;;;;4990665;28;20410;-73
2021/07/12 10:26:43;;;;;;;4.50;3.58;;;26.60;96.20;;;;;;4991565;28;20026;-73
2021/07/12 10:29:15;;;;;;;4.30;3.90;;;26.60;95.40;;;;;;4991057;28;20080;-73
2021/07/12 10:32:01;;;;;;;4.28;3.97;;;26.60;95.50;;;;;;4991337;28;20121;-74
2021/07/12 10:34:37;;;;;;;4.82;2.97;;;26.70;94.90;;;;;;4991419;28;20060;-74
2021/07/12 10:37:07;;;;;;;5.68;3.70;;;26.80;95.20;;;;;;4990736;28;20109;-74
2021/07/12 10:40:12;;;;;;;3.80;3.50;;;26.90;95.00;;;;;;4992328;28;20023;-73
2021/07/12 10:42:50;;;;;;;4.13;3.72;;;26.80;94.60;;;;;;4951017;29;20031;-73
2021/07/12 10:45:23;;;;;;;3.97;3.67;;;26.80;94.20;;;;;;4985075;28;20110;-75
2021/07/12 10:47:59;;;;;;;4.38;3.60;;;26.70;93.90;;;;;;4992655;28;20023;-74
2021/07/12 10:50:49;;;;;;;4.53;3.45;;;26.70;93.90;;;;;;4991705;28;20084;-73
2021/07/12 10:53:14;;;;;;;6.95;2.75;;;26.70;93.40;;;;;;4982415;28;20030;-72
2021/07/12 10:56:02;;;;;;;3.42;3.13;;;26.70;94.00;;;;;;4992428;28;20371;-73
2021/07/12 10:58:28;;;;;;;3.38;3.03;;;26.70;93.50;;;;;;4992523;28;20041;-73
2021/07/12 11:00:59;;;;;;;5.22;2.72;;;26.70;93.40;;;;;;4992169;28;20018;-73
2021/07/12 11:03:51;;;;;;;4.07;2.88;;;26.70;93.20;;;;;;5017661;28;20489;-74
2021/07/12 11:06:22;;;;;;;3.58;3.33;;;26.80;92.60;;;;;;5031737;28;20030;-74
2021/07/12 11:08:51;;;;;;;4.90;2.85;;;26.90;92.90;;;;;;5031856;28;20042;-73
2021/07/12 11:11:20;;;;;;;3.50;3.20;;;27.00;92.80;;;;;;5031148;28;20029;-73
2021/07/12 11:13:57;;;;;;;3.60;3.30;;;27.20;92.30;;;;;;5018378;28;20025;-73
2021/07/12 11:16:25;;;;;;;7.80;3.65;;;27.20;92.10;;;;;;5031762;28;20032;-73
2021/07/12 11:18:55;;;;;;;3.97;3.30;;;27.20;92.20;;;;;;5030980;28;20017;-74
2021/07/12 11:21:47;;;;;;;;;;;27.40;92.10;;;;;;5032230;28;20064;-73
2021/07/12 11:24:18;;;;;;;3.22;3.03;;;27.30;91.50;;;;;;5027371;28;19997;-73
2021/07/12 11:26:46;;;;;;;2.72;2.53;;;27.40;91.50;;;;;;5031714;28;20022;-72
2021/07/12 11:29:13;;;;;;;4.00;3.40;;;27.30;91.40;;;;;;5032690;28;20033;-75
2021/07/12 11:31:55;;;;;;;4.43;3.75;;;27.30;91.30;;;;;;5031283;28;20042;-73
2021/07/12 11:34:32;;;;;;;3.63;3.35;;;27.30;91.40;;;;;;5020064;28;20033;-73
2021/07/12 11:36:57;;;;;;;2.92;2.72;;;27.30;91.50;;;;;;5033772;28;20033;-73
2021/07/12 11:39:26;;;;;;;5.28;3.60;;;27.30;91.50;;;;;;5035847;28;20025;-74
2021/07/12 11:41:52;;;;;;;3.63;3.33;;;27.30;91.00;;;;;;5035687;28;20029;-73
2021/07/12 11:44:19;;;;;;;2.75;2.55;;;27.30;91.10;;;;;;5035169;28;20444;-74
2021/07/12 11:46:45;;;;;;;3.70;3.38;;;27.40;91.10;;;;;;5034527;28;20111;-74
2021/07/12 11:49:14;;;;;;;3.53;3.30;;;27.40;90.70;;;;;;5035106;28;20056;-73
2021/07/12 11:51:40;;;;;;;3.28;3.08;;;27.40;90.50;;;;;;5035171;28;20500;-73
2021/07/12 11:54:23;;;;;;;3.85;3.47;;;27.40;90.60;;;;;;5027927;28;20030;-73
2021/07/12 11:57:10;;;;;;;3.78;3.47;;;27.50;90.10;;;;;;5032208;28;20030;-74
2021/07/12 11:59:37;;;;;;;3.75;3.45;;;27.60;89.40;;;;;;5033767;28;20032;-72
2021/07/12 12:02:07;;;;;;;13.38;3.47;;;27.50;89.80;;;;;;5027283;28;20060;-73
2021/07/12 12:04:46;;;;;;;4.13;3.83;;;27.40;90.40;;;;;;5025461;28;20022;-73
2021/07/12 12:07:22;;;;;;;4.40;4.00;;;27.40;90.30;;;;;;5019506;28;20481;-72
2021/07/12 12:09:55;;;;;;;4.32;3.92;;;27.20;90.10;;;;;;5018917;28;20022;-73
2021/07/12 12:12:29;;;;;;;4.28;3.88;;;27.20;90.00;;;;;;5023964;28;20125;-73
2021/07/12 12:15:04;;;;;;;4.57;3.70;;;27.10;89.70;;;;;;5034087;28;20041;-74
2021/07/12 12:17:29;;;;;;;4.13;3.83;;;27.10;89.70;;;;;;5034953;28;20033;-73
2021/07/12 12:20:24;;;;;;;4.03;3.72;;;27.00;90.00;;;;;;5034738;28;20381;-73
2021/07/12 12:23:16;;;;;;;4.50;4.10;;;26.90;90.20;;;;;;5022971;28;20029;-73
2021/07/12 12:25:56;;;;;;;10.15;4.05;;;26.80;90.20;;;;;;5031595;28;20033;-73
2021/07/12 12:28:29;;;;;;;7.13;4.15;;;26.70;90.60;;;;;;5033792;28;20101;-72
2021/07/12 12:30:58;;;;;;;3.58;3.38;;;26.60;91.40;;;;;;5034219;28;20029;-73
2021/07/12 12:33:26;;;;;;;3.70;3.40;;;26.60;91.50;;;;;;5034454;28;20108;-73
2021/07/12 12:35:59;;;;;;;4.15;3.85;;;26.80;91.70;;;;;;5030885;28;20021;-73
2021/07/12 12:38:26;;;;;;;3.95;3.65;;;26.50;91.30;;;;;;5016509;28;20084;-74
2021/07/12 12:40:57;;;;;;;5.80;3.90;;;26.50;91.60;;;;;;5034057;28;20021;-73
2021/07/12 12:43:23;;;;;;;4.80;4.40;;;26.60;91.10;;;;;;5034063;28;20029;-75
2021/07/12 12:45:52;;;;;;;4.20;3.90;;;26.40;91.10;;;;;;5033726;28;20378;-73